aviador You're here:

KAKR Decoded Metar

AKRON in OH, USA
Report Time2017-07-26 05:54:00
UTC Time2017-07-26 06:29:28
Flight Rules vfr VFR
Wind090° at 04 kt
W.Decomp.*RWY 07: 3.6 kt HW 1.8 kt RCW
RWY 01: 0.2 kt HW 4.0 kt RCW
W.Rank090° ranks 30
Current wind is below 090° avg. (4.9)
Visibility9999 m
Phenomena:N/A
Clouds:N/A
Expected CloudBase > 2,000 ft AGL from Temp-Dew spread
CeilingNone
Temp18°C (ISA +5)
Dew Point13°C (73% RH)
AAT17.5°C
QNH1023 hPa
Density Alt1,690 ft
Elevation1,191 ft
Report Wrong Elevation
Raw Report
KAKR 260554Z AUTO 09004KT 10SM CLR 18/13 A3022 RMK AO2 SLP226
T01780133 10233 20172 58002 TSNO=

Extra information for KAKR:More info

Metar Taf Metar & Taf Last 4 Metars F.Rules Stats Wind Profile Meteogram Temp Stats Airport Information Weather charts Add Link Nearby VenuesMetar ALERT Operation Metar Decoded Social comments

AIRNAV info for KAKR